Time;durP1;ratioP1;P1;durP2;ratioP2;P2;SDS_P1;SDS_P2;PMS_P1;PMS_P2;Temp;Humidity;BMP_temperature;BMP_pressure;BME280_temperature;BME280_humidity;BME280_pressure;Samples;Min_cycle;Max_cycle;Signal;HPM_P1;HPM_P2
2024/03/14 00:00:51;;;;;;;27.88;12.57;;;;;;;8.78;100.00;101338.34;6178352;23;19912;-72
2024/03/14 00:03:16;;;;;;;29.67;13.25;;;;;;;8.76;100.00;101341.28;6203687;23;20016;-70
2024/03/14 00:05:43;;;;;;;29.92;14.23;;;;;;;8.75;100.00;101340.47;6176408;23;20017;-72
2024/03/14 00:08:09;;;;;;;26.88;13.55;;;;;;;8.74;100.00;101338.03;6204431;23;20462;-72
2024/03/14 00:10:35;;;;;;;26.92;13.25;;;;;;;8.73;100.00;101336.41;6128738;23;20036;-70
2024/03/14 00:13:01;;;;;;;27.42;12.23;;;;;;;8.71;100.00;101335.84;6204606;23;20048;-71
2024/03/14 00:15:27;;;;;;;28.30;13.73;;;;;;;8.69;100.00;101333.41;6153851;23;20008;-72
2024/03/14 00:17:53;;;;;;;30.63;14.38;;;;;;;8.68;100.00;101333.66;6152120;23;20787;-72
2024/03/14 00:20:19;;;;;;;28.02;12.90;;;;;;;8.66;100.00;101335.75;6179388;23;20015;-71
2024/03/14 00:22:45;;;;;;;31.88;14.05;;;;;;;8.67;100.00;101334.69;6176802;23;20059;-72
2024/03/14 00:25:12;;;;;;;31.00;14.23;;;;;;;8.66;100.00;101335.75;6178726;23;20017;-72
2024/03/14 00:27:44;;;;;;;32.67;13.68;;;;;;;8.63;100.00;101325.56;6204037;23;20012;-72
2024/03/14 00:30:11;;;;;;;32.67;15.05;;;;;;;8.65;100.00;101328.78;6153058;23;20017;-69
2024/03/14 00:32:37;;;;;;;32.17;15.63;;;;;;;8.63;100.00;101331.72;6203225;23;20017;-71
2024/03/14 00:35:04;;;;;;;33.80;15.30;;;;;;;8.64;100.00;101335.19;6204012;23;20012;-70
2024/03/14 00:37:30;;;;;;;40.20;15.45;;;;;;;8.64;100.00;101327.19;6151841;23;20434;-70
2024/03/14 00:39:56;;;;;;;32.30;14.52;;;;;;;8.62;100.00;101330.09;6204612;23;20075;-70
2024/03/14 00:42:24;;;;;;;35.13;14.82;;;;;;;8.66;100.00;101330.41;6152585;23;20811;-71
2024/03/14 00:44:51;;;;;;;32.90;14.10;;;;;;;8.65;100.00;101320.78;6176725;23;20036;-70
2024/03/14 00:47:17;;;;;;;33.53;14.13;;;;;;;8.65;100.00;101334.13;6152157;23;20062;-71
2024/03/14 00:49:43;;;;;;;;;;;;;;;8.66;100.00;101330.41;6204947;23;20028;-70
2024/03/14 00:52:09;;;;;;;33.85;13.50;;;;;;;8.67;100.00;101326.69;6175928;23;19926;-70
2024/03/14 00:54:35;;;;;;;37.35;15.40;;;;;;;8.67;100.00;101324.84;6176273;23;20008;-70
2024/03/14 00:57:03;;;;;;;34.17;15.05;;;;;;;8.68;100.00;101317.66;6151668;23;20074;-70
2024/03/14 00:59:32;;;;;;;34.72;15.43;;;;;;;8.69;100.00;101321.94;6152627;23;20462;-72
2024/03/14 01:01:58;;;;;;;36.45;14.63;;;;;;;8.70;100.00;101316.34;6176149;23;20043;-71
2024/03/14 01:04:24;;;;;;;42.42;15.55;;;;;;;8.69;100.00;101319.25;6152194;23;20481;-71
2024/03/14 01:06:52;;;;;;;37.60;15.82;;;;;;;8.71;100.00;101317.97;6175782;23;20013;-70
2024/03/14 01:09:18;;;;;;;37.88;15.50;;;;;;;8.71;100.00;101315.28;6177473;23;20020;-70
2024/03/14 01:11:44;;;;;;;42.20;17.17;;;;;;;8.73;100.00;101315.84;6151996;23;20667;-71
2024/03/14 01:14:11;;;;;;;42.22;16.48;;;;;;;8.77;100.00;101310.84;6176401;23;20012;-72
2024/03/14 01:16:39;;;;;;;41.95;16.50;;;;;;;8.79;100.00;101310.59;6202387;23;20392;-70
2024/03/14 01:19:07;;;;;;;45.03;17.00;;;;;;;8.80;100.00;101310.34;6150863;23;20095;-70
2024/03/14 01:21:43;;;;;;;44.05;18.15;;;;;;;8.80;100.00;101305.00;6175883;23;20015;-71
2024/03/14 01:24:10;;;;;;;41.03;15.60;;;;;;;8.82;100.00;101308.25;6202250;23;20091;-70
2024/03/14 01:26:35;;;;;;;42.67;17.67;;;;;;;8.83;100.00;101306.38;6173026;23;20694;-70
2024/03/14 01:29:01;;;;;;;45.75;18.13;;;;;;;8.86;100.00;101303.22;6202792;23;20067;-71
2024/03/14 01:31:28;;;;;;;42.42;17.52;;;;;;;8.85;100.00;101302.41;6154780;23;20537;-69
2024/03/14 01:33:54;;;;;;;47.50;17.65;;;;;;;8.87;100.00;101302.97;6178294;23;20012;-70
2024/03/14 01:36:20;;;;;;;44.30;18.30;;;;;;;8.87;100.00;101300.28;6179167;23;20009;-70
2024/03/14 01:38:46;;;;;;;;;;;;;;;8.88;100.00;101301.13;6178736;23;20105;-71
2024/03/14 01:41:16;;;;;;;40.85;16.85;;;;;;;8.87;100.00;101300.28;6179862;23;20321;-72
2024/03/14 01:43:42;;;;;;;42.97;16.55;;;;;;;8.88;100.00;101293.13;6206306;23;20089;-71
2024/03/14 01:46:08;;;;;;;41.40;17.75;;;;;;;8.87;100.00;101294.16;6175319;23;20099;-70
2024/03/14 01:48:34;;;;;;;45.90;17.40;;;;;;;8.88;100.00;101291.25;6153192;23;20480;-70
2024/03/14 01:50:59;;;;;;;;;;;;;;;8.90;100.00;101288.34;6154814;23;20016;-70
2024/03/14 01:53:25;;;;;;;46.35;17.60;;;;;;;8.90;100.00;101286.47;6205477;23;19974;-70
2024/03/14 01:55:50;;;;;;;46.63;18.20;;;;;;;8.91;100.00;101284.59;6152999;23;20032;-69
2024/03/14 01:58:22;;;;;;;47.60;20.05;;;;;;;8.93;100.00;101283.28;6149064;23;20021;-70
2024/03/14 02:00:50;;;;;;;38.38;16.27;;;;;;;8.92;100.00;101279.00;6177363;23;20713;-70
2024/03/14 02:03:17;;;;;;;47.60;18.85;;;;;;;8.93;100.00;101267.25;6204578;23;20385;-70
2024/03/14 02:05:52;;;;;;;43.90;17.80;;;;;;;8.93;100.00;101272.59;6154785;23;20023;-71
2024/03/14 02:08:20;;;;;;;39.67;17.40;;;;;;;8.95;100.00;101269.72;6128849;23;20090;-71
2024/03/14 02:10:45;;;;;;;41.83;16.85;;;;;;;8.94;100.00;101268.91;6179716;23;20012;-70
2024/03/14 02:13:11;;;;;;;43.85;17.20;;;;;;;8.95;100.00;101264.38;6177757;23;20461;-71
2024/03/14 02:15:38;;;;;;;41.63;17.05;;;;;;;8.96;100.00;101271.31;6205609;23;20090;-70
2024/03/14 02:18:05;;;;;;;43.00;17.77;;;;;;;8.95;100.00;101267.84;6178081;23;20103;-70
2024/03/14 02:20:31;;;;;;;42.85;17.42;;;;;;;8.94;100.00;101258.22;6179580;23;20020;-71
2024/03/14 02:22:57;;;;;;;44.78;18.60;;;;;;;8.96;100.00;101261.44;6204978;23;20020;-71
2024/03/14 02:25:25;;;;;;;44.58;18.58;;;;;;;8.96;100.00;101266.78;6154067;23;20016;-70
2024/03/14 02:27:51;;;;;;;43.60;17.35;;;;;;;8.96;100.00;101256.09;6153820;23;20017;-71
2024/03/14 02:30:17;;;;;;;41.28;17.55;;;;;;;8.96;100.00;101250.75;6154857;23;20497;-70
2024/03/14 02:32:43;;;;;;;40.92;18.33;;;;;;;8.98;100.00;101258.53;6154068;23;20024;-70
2024/03/14 02:35:09;;;;;;;46.00;17.80;;;;;;;8.97;100.00;101251.56;6177435;23;20016;-70
2024/03/14 02:37:34;;;;;;;43.00;18.20;;;;;;;8.97;100.00;101254.25;6178799;23;20071;-70
2024/03/14 02:40:00;;;;;;;45.15;18.42;;;;;;;8.98;100.00;101255.84;6129632;23;20025;-71
2024/03/14 02:42:26;;;;;;;45.53;18.42;;;;;;;8.96;100.00;101250.75;6178655;23;20012;-70
2024/03/14 02:44:52;;;;;;;42.75;19.65;;;;;;;8.96;100.00;101248.09;6179691;23;20008;-70
2024/03/14 02:47:17;;;;;;;44.42;18.05;;;;;;;8.96;100.00;101241.94;6179143;23;20044;-71
2024/03/14 02:49:43;;;;;;;41.53;18.08;;;;;;;8.97;100.00;101240.88;6180816;23;20020;-71
2024/03/14 02:52:08;;;;;;;40.58;18.35;;;;;;;8.97;100.00;101236.34;6178253;23;20028;-70
2024/03/14 02:54:35;;;;;;;40.70;17.90;;;;;;;8.97;100.00;101240.88;6205256;23;20006;-72
2024/03/14 02:57:00;;;;;;;;;;;;;;;8.98;100.00;101227.28;6179264;23;20465;-72
2024/03/14 02:59:26;;;;;;;36.88;16.20;;;;;;;8.97;100.00;101236.34;6180024;23;19908;-70
2024/03/14 03:01:55;;;;;;;37.00;15.73;;;;;;;8.97;100.00;101225.66;6128790;23;20027;-70
2024/03/14 03:04:20;;;;;;;36.97;17.73;;;;;;;8.97;100.00;101225.66;6205038;23;20016;-71
2024/03/14 03:06:53;;;;;;;36.05;16.67;;;;;;;8.97;100.00;101233.69;6178696;23;20779;-71
2024/03/14 03:09:22;;;;;;;37.40;17.27;;;;;;;8.99;100.00;101222.72;6178908;23;20107;-70
2024/03/14 03:11:48;;;;;;;35.97;16.65;;;;;;;8.99;100.00;101236.09;6205496;23;20016;-70
2024/03/14 03:14:13;;;;;;;36.60;17.15;;;;;;;8.99;100.00;101223.53;6205695;23;20019;-70
2024/03/14 03:16:39;;;;;;;34.88;17.17;;;;;;;9.00;100.00;101225.16;6203958;23;20354;-70
2024/03/14 03:19:05;;;;;;;36.10;17.50;;;;;;;9.00;100.00;101233.16;6178359;23;20016;-70
2024/03/14 03:21:31;;;;;;;36.28;17.90;;;;;;;9.01;100.00;101228.66;6179269;23;20021;-70
2024/03/14 03:23:57;;;;;;;36.97;16.38;;;;;;;9.01;100.00;101226.78;6178368;23;20099;-70
2024/03/14 03:26:25;;;;;;;35.42;17.00;;;;;;;9.02;100.00;101225.72;6154595;23;20048;-69
2024/03/14 03:28:51;;;;;;;38.55;16.60;;;;;;;9.03;100.00;101218.53;6179370;23;20020;-70
2024/03/14 03:31:17;;;;;;;;;;;;;;;9.03;100.00;101219.34;6208388;23;20012;-70
2024/03/14 03:33:43;;;;;;;31.25;15.35;;;;;;;9.02;100.00;101217.72;6180262;23;19966;-70
2024/03/14 03:36:09;;;;;;;31.23;15.38;;;;;;;9.03;100.00;101219.34;6180889;23;20020;-69
2024/03/14 03:38:38;;;;;;;32.17;15.73;;;;;;;9.04;100.00;101214.78;6207071;23;20016;-71
2024/03/14 03:41:06;;;;;;;35.25;16.98;;;;;;;9.06;100.00;101211.88;6155118;23;20020;-70
2024/03/14 03:43:32;;;;;;;34.58;16.23;;;;;;;9.03;100.00;101219.34;6130159;23;20016;-70
2024/03/14 03:45:58;;;;;;;33.10;17.02;;;;;;;9.04;100.00;101220.13;6180006;23;20016;-71
2024/03/14 03:48:24;;;;;;;30.13;15.63;;;;;;;9.05;100.00;101215.59;6155830;23;20166;-70
2024/03/14 03:50:50;;;;;;;32.80;15.82;;;;;;;9.06;100.00;101211.88;6156978;23;20410;-70
2024/03/14 03:53:16;;;;;;;29.75;16.17;;;;;;;9.07;100.00;101208.13;6206620;23;20020;-70
2024/03/14 03:55:45;;;;;;;28.98;15.55;;;;;;;9.08;100.00;101207.06;6181532;23;20013;-70
2024/03/14 03:58:11;;;;;;;29.95;15.85;;;;;;;9.08;100.00;101199.06;6179039;23;20036;-70
2024/03/14 04:00:46;;;;;;;29.05;15.77;;;;;;;9.08;100.00;101204.41;6155724;23;20012;-71
2024/03/14 04:03:14;;;;;;;30.77;16.58;;;;;;;9.08;100.00;101204.41;6179692;23;20020;-70
2024/03/14 04:05:45;;;;;;;30.27;15.13;;;;;;;9.08;100.00;101194.56;6181119;23;20390;-71
2024/03/14 04:08:14;;;;;;;25.25;13.80;;;;;;;9.10;100.00;101203.13;6205331;23;20412;-71
2024/03/14 04:10:41;;;;;;;24.85;14.32;;;;;;;9.09;100.00;101195.34;6156261;23;20020;-69
2024/03/14 04:13:11;;;;;;;;;;;;;;;9.08;100.00;101197.22;6205761;23;20016;-70
2024/03/14 04:15:38;;;;;;;26.77;14.60;;;;;;;9.07;100.00;101203.59;6156162;23;19934;-70
2024/03/14 04:18:07;;;;;;;24.58;13.77;;;;;;;9.07;100.00;101197.44;6154171;23;20024;-70
2024/03/14 04:20:37;;;;;;;27.80;14.80;;;;;;;9.07;100.00;101197.44;6207356;23;20012;-70
2024/03/14 04:23:05;;;;;;;25.60;13.93;;;;;;;9.06;100.00;101185.16;6179319;23;20117;-70
2024/03/14 04:25:31;;;;;;;24.60;13.38;;;;;;;9.05;100.00;101194.22;6130937;23;20470;-70
2024/03/14 04:27:57;;;;;;;25.08;13.75;;;;;;;9.04;100.00;101193.41;6155080;23;20020;-71
2024/03/14 04:30:23;;;;;;;27.25;15.23;;;;;;;9.04;100.00;101193.41;6206542;23;20124;-71
2024/03/14 04:32:52;;;;;;;25.80;15.40;;;;;;;9.04;100.00;101196.09;6155847;23;20017;-71
2024/03/14 04:35:20;;;;;;;27.63;14.95;;;;;;;9.05;100.00;101200.38;6206524;23;20032;-71
2024/03/14 04:37:49;;;;;;;24.95;14.00;;;;;;;9.05;100.00;101195.03;6205698;23;20463;-71
2024/03/14 04:40:19;;;;;;;27.50;15.80;;;;;;;9.04;100.00;101193.41;6180629;23;20005;-70
2024/03/14 04:42:46;;;;;;;21.73;12.43;;;;;;;9.05;100.00;101192.38;6155363;23;20332;-70
2024/03/14 04:45:21;;;;;;;23.58;14.30;;;;;;;9.06;100.00;101185.16;6177601;23;20063;-70
2024/03/14 04:47:48;;;;;;;25.08;14.15;;;;;;;9.06;100.00;101182.47;6205496;23;20023;-69
2024/03/14 04:50:21;;;;;;;23.42;13.85;;;;;;;9.03;100.00;101181.94;6179846;23;20371;-70
2024/03/14 04:52:51;;;;;;;25.98;14.25;;;;;;;9.03;100.00;101176.59;6206055;23;20016;-70
2024/03/14 04:55:17;;;;;;;25.92;14.70;;;;;;;9.03;100.00;101178.44;6179658;23;20008;-70
2024/03/14 04:57:43;;;;;;;22.25;13.98;;;;;;;9.04;100.00;101196.09;6179937;23;20015;-71
2024/03/14 05:02:49;;;;;;;23.98;14.13;;;;;;;9.03;100.00;101184.59;6206598;23;20051;-70
2024/03/14 05:05:18;;;;;;;25.08;13.70;;;;;;;9.02;100.00;101180.31;6155747;23;20350;-70
2024/03/14 05:07:44;;;;;;;24.88;13.50;;;;;;;9.02;100.00;101179.50;6179714;23;20027;-70
2024/03/14 05:10:13;;;;;;;24.67;13.48;;;;;;;9.02;100.00;101184.84;6206540;23;20012;-71
2024/03/14 05:12:40;;;;;;;25.38;14.68;;;;;;;9.05;100.00;101181.69;6179443;23;20087;-70
2024/03/14 05:15:07;;;;;;;25.52;14.73;;;;;;;9.07;100.00;101184.09;6180017;23;20350;-70
2024/03/14 05:17:34;;;;;;;23.70;14.23;;;;;;;9.05;100.00;101183.53;6206707;23;20115;-71
2024/03/14 05:20:00;;;;;;;23.33;13.55;;;;;;;9.06;100.00;101193.16;6155027;23;20056;-71
2024/03/14 05:22:31;;;;;;;24.98;14.43;;;;;;;9.07;100.00;101184.91;6205692;23;20008;-70
2024/03/14 05:24:58;;;;;;;23.80;14.18;;;;;;;9.06;100.00;101185.16;6179999;23;20016;-73
2024/03/14 05:27:27;;;;;;;24.13;13.85;;;;;;;9.08;100.00;101196.38;6150632;23;20052;-71
2024/03/14 05:29:52;;;;;;;25.13;14.50;;;;;;;9.11;100.00;101193.25;6180489;23;20529;-70
2024/03/14 05:32:23;;;;;;;23.67;13.68;;;;;;;9.11;100.00;101188.69;6179157;23;20012;-70
2024/03/14 05:34:49;;;;;;;24.10;14.25;;;;;;;9.14;100.00;101190.06;6206763;23;20058;-70
2024/03/14 05:37:15;;;;;;;;;;;;;;;9.16;100.00;101195.97;6153161;23;20013;-71
2024/03/14 05:39:41;;;;;;;24.77;14.27;;;;;;;9.15;100.00;101189.03;6154677;23;19953;-71
2024/03/14 05:42:12;;;;;;;24.33;13.43;;;;;;;9.15;100.00;101183.69;6179185;23;20450;-71
2024/03/14 05:44:41;;;;;;;21.63;13.20;;;;;;;9.15;100.00;101187.16;6205819;23;20459;-71
2024/03/14 05:47:10;;;;;;;23.50;14.30;;;;;;;9.17;100.00;101184.22;6204828;23;20016;-70
2024/03/14 05:49:36;;;;;;;24.48;14.70;;;;;;;9.17;100.00;101184.22;6153410;23;20031;-71
2024/03/14 05:52:02;;;;;;;25.92;14.63;;;;;;;9.18;100.00;101183.97;6178601;23;20099;-71
2024/03/14 05:54:28;;;;;;;21.73;13.50;;;;;;;9.18;100.00;101183.16;6154126;23;20528;-69
2024/03/14 05:56:53;;;;;;;25.85;15.75;;;;;;;9.19;100.00;101184.78;6177878;23;20016;-71
2024/03/14 05:59:19;;;;;;;26.10;14.07;;;;;;;9.19;100.00;101184.78;6179863;23;20013;-71
2024/03/14 06:01:45;;;;;;;29.35;15.02;;;;;;;9.20;100.00;101186.38;6178895;23;20023;-73
2024/03/14 06:04:10;;;;;;;26.33;14.50;;;;;;;9.20;100.00;101189.88;6178585;23;20012;-71
2024/03/14 06:06:37;;;;;;;24.80;15.70;;;;;;;9.20;100.00;101192.53;6178658;23;20016;-71
2024/03/14 06:09:03;;;;;;;23.73;14.10;;;;;;;9.22;100.00;101184.31;6205787;23;20641;-71
2024/03/14 06:11:31;;;;;;;24.73;15.27;;;;;;;9.20;100.00;101184.53;6206158;23;20013;-71
2024/03/14 06:13:58;;;;;;;25.42;16.33;;;;;;;9.22;100.00;101178.94;6179199;23;20450;-71
2024/03/14 06:16:24;;;;;;;27.38;17.23;;;;;;;9.20;100.00;101181.84;6205695;23;20019;-70
2024/03/14 06:18:50;;;;;;;28.95;15.32;;;;;;;9.22;100.00;101189.63;6129577;23;20021;-71
2024/03/14 06:21:16;;;;;;;25.38;15.40;;;;;;;9.23;100.00;101191.25;6179307;23;20017;-72
2024/03/14 06:23:41;;;;;;;25.13;15.45;;;;;;;9.23;100.00;101186.72;6178136;23;20017;-71
2024/03/14 06:26:08;;;;;;;25.60;15.52;;;;;;;9.23;100.00;101192.06;6206455;23;20020;-71
2024/03/14 06:28:35;;;;;;;31.00;16.23;;;;;;;9.23;100.00;101192.06;6153714;23;20019;-71
2024/03/14 06:31:03;;;;;;;24.50;15.48;;;;;;;9.23;100.00;101192.06;6179956;23;20143;-70
2024/03/14 06:33:29;;;;;;;25.63;14.98;;;;;;;9.24;100.00;101187.53;6177511;23;20024;-71
2024/03/14 06:35:55;;;;;;;26.20;15.00;;;;;;;9.27;100.00;101181.66;6130704;23;20016;-72
2024/03/14 06:38:24;;;;;;;25.85;17.25;;;;;;;9.30;100.00;101186.53;6204548;23;20036;-70
2024/03/14 06:40:52;;;;;;;26.13;15.65;;;;;;;9.32;100.00;101188.94;6130278;23;20463;-70
2024/03/14 06:43:19;;;;;;;25.20;16.02;;;;;;;9.35;100.00;101191.94;6203811;23;20016;-71
2024/03/14 06:45:45;;;;;;;26.58;15.38;;;;;;;9.39;100.00;101195.69;6154465;23;20828;-71
2024/03/14 06:48:11;;;;;;;26.13;15.32;;;;;;;9.44;100.00;101194.97;6153617;23;20047;-71
2024/03/14 06:50:37;;;;;;;28.67;14.95;;;;;;;9.46;100.00;101188.28;6179719;23;20336;-71
2024/03/14 06:53:03;;;;;;;24.25;15.88;;;;;;;9.51;100.00;101193.69;6176945;23;20028;-71
2024/03/14 06:55:30;;;;;;;24.13;14.32;;;;;;;9.54;100.00;101195.88;6178666;23;20611;-71
2024/03/14 06:57:56;;;;;;;22.52;13.98;;;;;;;9.58;100.00;101193.50;6152203;23;20016;-71
2024/03/14 07:00:24;;;;;;;25.20;14.77;;;;;;;9.60;100.00;101196.72;6154262;23;20528;-70
2024/03/14 07:02:50;;;;;;;21.77;14.57;;;;;;;9.63;100.00;101190.91;6153552;23;20019;-70
2024/03/14 07:05:15;;;;;;;22.35;13.95;;;;;;;9.65;100.00;101195.97;6205018;23;20012;-72
2024/03/14 07:07:44;;;;;;;19.67;12.63;;;;;;;9.65;100.00;101202.13;6205340;23;20012;-69
2024/03/14 07:10:13;;;;;;;20.65;12.07;;;;;;;9.65;100.00;101204.00;6178933;23;20024;-70
2024/03/14 07:12:43;;;;;;;20.67;12.98;;;;;;;9.67;100.00;101201.88;6153197;23;20019;-70
2024/03/14 07:15:08;;;;;;;22.90;12.85;;;;;;;9.68;100.00;101203.50;6206225;23;20009;-71
2024/03/14 07:17:37;;;;;;;19.45;13.30;;;;;;;9.69;100.00;101199.78;6153960;23;20024;-70
2024/03/14 07:20:10;;;;;;;21.30;13.70;;;;;;;9.71;100.00;101203.00;6179127;23;20028;-70
2024/03/14 07:22:37;;;;;;;21.48;13.02;;;;;;;9.71;100.00;101209.16;6200959;23;20745;-71
2024/03/14 07:25:06;;;;;;;20.77;13.25;;;;;;;9.69;100.00;101199.78;6178915;23;20469;-70
2024/03/14 07:27:33;;;;;;;22.88;14.23;;;;;;;9.66;100.00;101200.28;6178002;23;20009;-70
2024/03/14 07:30:00;;;;;;;20.90;14.52;;;;;;;9.64;100.00;101202.41;6205764;23;20530;-70
2024/03/14 07:32:28;;;;;;;22.45;15.15;;;;;;;9.62;100.00;101205.31;6203773;23;20017;-69
2024/03/14 07:34:56;;;;;;;21.50;12.88;;;;;;;9.62;100.00;101199.97;6154205;23;20099;-71
2024/03/14 07:37:23;;;;;;;21.20;13.48;;;;;;;9.62;100.00;101199.97;6177568;23;20492;-70
2024/03/14 07:39:50;;;;;;;28.92;13.38;;;;;;;9.64;100.00;101208.56;6154640;23;20012;-70
2024/03/14 07:42:17;;;;;;;20.83;12.75;;;;;;;9.65;100.00;101206.69;6175928;23;20018;-70
2024/03/14 07:44:45;;;;;;;20.60;14.00;;;;;;;9.66;100.00;101208.28;6152558;23;20063;-72
2024/03/14 07:47:23;;;;;;;17.65;13.45;;;;;;;9.66;100.00;101213.63;6152859;23;20016;-71
2024/03/14 07:49:50;;;;;;;20.85;13.13;;;;;;;9.66;100.00;101208.28;6205596;23;20016;-70
2024/03/14 07:52:16;;;;;;;25.85;14.30;;;;;;;9.68;100.00;101208.84;6204810;23;20016;-71
2024/03/14 07:54:47;;;;;;;21.98;13.65;;;;;;;9.74;100.00;101219.34;6204947;23;20020;-70
2024/03/14 07:57:15;;;;;;;19.02;13.88;;;;;;;9.80;100.00;101212.19;6177673;23;20020;-70
2024/03/14 07:59:41;;;;;;;19.45;12.27;;;;;;;9.86;100.00;101219.19;6154263;23;20020;-70
2024/03/14 08:02:07;;;;;;;18.90;12.68;;;;;;;9.91;100.00;101219.25;6176396;23;20023;-70
2024/03/14 08:04:37;;;;;;;19.02;12.52;;;;;;;9.98;100.00;101221.72;6128767;23;20192;-72
2024/03/14 08:07:10;;;;;;;18.55;12.85;;;;;;;10.07;100.00;101223.66;6198194;23;20020;-71
2024/03/14 08:09:42;;;;;;;19.50;12.07;;;;;;;10.18;100.00;101218.41;6179183;23;20051;-71
2024/03/14 08:12:09;;;;;;;19.38;11.77;;;;;;;10.24;100.00;101218.22;6153335;23;20017;-70
2024/03/14 08:14:35;;;;;;;18.88;11.73;;;;;;;10.30;100.00;101217.22;6178169;23;20441;-71
2024/03/14 08:17:02;;;;;;;17.17;12.43;;;;;;;10.34;100.00;101212.94;6179209;23;20050;-71
2024/03/14 08:19:30;;;;;;;17.25;12.38;;;;;;;10.39;100.00;101220.22;6179124;23;20012;-71
2024/03/14 08:21:56;;;;;;;15.85;11.60;;;;;;;10.46;100.00;101220.00;6155645;23;20016;-70
2024/03/14 08:24:26;;;;;;;15.65;11.75;;;;;;;10.49;100.00;101214.94;6180195;23;20020;-71
2024/03/14 08:26:53;;;;;;;17.85;10.98;;;;;;;10.56;100.00;101217.38;6179205;23;20024;-72
2024/03/14 08:29:20;;;;;;;15.98;11.57;;;;;;;10.61;100.00;101198.69;6154126;23;20012;-72
2024/03/14 08:31:46;;;;;;;16.60;12.15;;;;;;;10.71;100.00;101205.97;6179782;23;20016;-70
2024/03/14 08:34:12;;;;;;;13.75;9.93;;;;;;;10.77;100.00;101204.91;6179890;23;20012;-70
2024/03/14 08:36:41;;;;;;;;;;;;;;;10.84;100.00;101208.22;6179606;23;20012;-70
2024/03/14 08:39:06;;;;;;;15.32;10.05;;;;;;;10.92;100.00;101208.50;6207195;23;20621;-70
2024/03/14 08:41:32;;;;;;;14.90;9.85;;;;;;;10.99;100.00;101208.28;6155346;23;20055;-70
2024/03/14 08:43:58;;;;;;;16.58;11.77;;;;;;;11.07;100.00;101202.41;6179663;23;20017;-70
2024/03/14 08:46:23;;;;;;;;;;;;;;;11.13;100.00;101203.25;6180729;23;20070;-70
2024/03/14 08:48:49;;;;;;;16.13;10.63;;;;;;;11.17;100.00;101198.94;6129379;23;19986;-70
2024/03/14 08:51:15;;;;;;;15.60;9.23;;;;;;;11.25;100.00;101200.34;6179468;23;20016;-71
2024/03/14 08:56:26;;;;;;;15.20;9.73;;;;;;;11.40;100.00;101197.72;6205528;23;20489;-71
2024/03/14 08:58:56;;;;;;;14.43;9.75;;;;;;;11.49;100.00;101202.28;6154303;23;20020;-70
2024/03/14 09:01:25;;;;;;;13.23;9.95;;;;;;;11.63;100.00;101201.78;6206861;23;20021;-71
2024/03/14 09:03:51;;;;;;;11.68;8.60;;;;;;;11.67;100.00;101198.31;6153822;23;20386;-71
2024/03/14 09:06:18;;;;;;;13.77;8.82;;;;;;;11.70;100.00;101192.41;6206348;23;20063;-71
2024/03/14 09:08:44;;;;;;;13.40;9.60;;;;;;;11.79;100.00;101191.91;6152980;23;20016;-72
2024/03/14 09:11:10;;;;;;;12.35;9.00;;;;;;;11.85;100.00;101183.59;6180220;23;20016;-71
2024/03/14 09:13:36;;;;;;;13.13;9.88;;;;;;;11.90;100.00;101191.66;6180022;23;20012;-71
2024/03/14 09:16:04;;;;;;;11.95;8.60;;;;;;;12.01;100.00;101189.81;6155480;23;20090;-71
2024/03/14 09:18:29;;;;;;;11.73;8.95;;;;;;;12.10;100.00;101182.00;6178898;23;20332;-72
2024/03/14 09:20:55;;;;;;;11.77;8.50;;;;;;;12.11;100.00;101181.72;6206040;23;20015;-72
2024/03/14 09:23:25;;;;;;;14.75;9.20;;;;;;;12.13;100.00;101187.66;6178158;23;20845;-71
2024/03/14 09:25:51;;;;;;;12.75;8.70;;;;;;;12.17;100.00;101185.22;6174860;23;20017;-71
2024/03/14 09:28:38;;;;;;;13.13;8.77;;;;;;;12.20;100.00;101185.50;6204589;23;20021;-71
2024/03/14 09:31:08;;;;;;;10.77;8.00;;;;;;;12.22;100.00;101191.41;6179507;23;20012;-71
2024/03/14 09:33:40;;;;;;;13.38;9.13;;;;;;;12.36;100.00;101185.50;6177920;23;20024;-72
2024/03/14 09:36:13;;;;;;;9.90;7.28;;;;;;;12.43;100.00;101194.06;6155718;23;20017;-71
2024/03/14 09:38:39;;;;;;;13.25;7.70;;;;;;;12.51;100.00;101196.19;6178889;23;20664;-72
2024/03/14 09:41:05;;;;;;;11.50;8.10;;;;;;;12.58;100.00;101196.72;6154456;23;20016;-72
2024/03/14 09:43:31;;;;;;;12.18;7.93;;;;;;;12.62;100.00;101194.31;6178866;23;20016;-71
2024/03/14 09:45:58;;;;;;;9.75;6.82;;;;;;;12.74;100.00;101190.25;6180135;23;20087;-71
2024/03/14 09:48:28;;;;;;;9.38;7.63;;;;;;;12.87;100.00;101183.50;6204852;23;20023;-71
2024/03/14 09:50:56;;;;;;;11.23;8.23;;;;;;;13.02;100.00;101190.72;6178626;23;20020;-72
2024/03/14 09:53:28;;;;;;;9.32;6.97;;;;;;;13.10;100.00;101184.75;6154206;23;20027;-72
2024/03/14 09:55:54;;;;;;;10.38;7.22;;;;;;;13.13;100.00;101187.69;6152903;23;20020;-71
2024/03/14 09:58:21;;;;;;;10.93;6.70;;;;;;;13.16;100.00;101186.34;6152945;23;20021;-71
2024/03/14 10:00:52;;;;;;;10.40;6.68;;;;;;;13.21;100.00;101180.97;6206612;23;20099;-71
2024/03/14 10:03:21;;;;;;;11.70;6.88;;;;;;;13.38;100.00;101188.69;6178446;23;20012;-71
2024/03/14 10:05:51;;;;;;;9.48;6.88;;;;;;;13.51;100.00;101182.69;6129715;23;20095;-71
2024/03/14 10:08:21;;;;;;;8.63;6.18;;;;;;;13.58;100.00;101180.50;6153908;23;20008;-71
2024/03/14 10:10:47;;;;;;;7.72;5.70;;;;;;;13.62;100.00;101180.75;6179301;23;20354;-71
2024/03/14 10:13:24;;;;;;;6.80;5.28;;;;;;;13.66;100.00;101179.09;6179059;23;20462;-73
2024/03/14 10:15:50;;;;;;;8.00;5.38;;;;;;;13.72;100.00;101180.69;6129702;23;20012;-71
2024/03/14 10:18:18;;;;;;;7.85;5.50;;;;;;;13.67;100.00;101178.00;6129324;23;20064;-70
2024/03/14 10:20:44;;;;;;;8.63;5.13;;;;;;;13.71;100.00;101180.97;6179235;23;20063;-70
2024/03/14 10:23:09;;;;;;;7.80;4.60;;;;;;;13.72;100.00;101177.97;6129225;23;20016;-71
2024/03/14 10:25:39;;;;;;;7.18;4.72;;;;;;;13.83;100.00;101176.84;6204431;23;20032;-71
2024/03/14 10:28:17;;;;;;;6.53;5.15;;;;;;;13.89;100.00;101172.22;6178890;23;20008;-71
2024/03/14 10:30:57;;;;;;;6.45;4.32;;;;;;;13.94;100.00;101172.97;6179346;23;20454;-71
2024/03/14 10:33:26;;;;;;;6.88;4.55;;;;;;;13.97;100.00;101173.50;6152715;23;20040;-72
2024/03/14 10:36:00;;;;;;;5.82;4.30;;;;;;;13.97;100.00;101173.50;6129674;23;20139;-71
2024/03/14 10:38:27;;;;;;;7.10;4.63;;;;;;;13.98;100.00;101175.13;6175904;23;20012;-72
2024/03/14 10:40:57;;;;;;;8.45;4.45;;;;;;;14.01;100.00;101159.19;6179133;23;20123;-71
2024/03/14 10:43:32;;;;;;;6.78;4.45;;;;;;;14.10;100.00;101168.28;6177463;23;20355;-71
2024/03/14 10:45:59;;;;;;;6.28;4.30;;;;;;;14.27;100.00;101162.47;6150296;23;20041;-72
2024/03/14 10:48:26;;;;;;;6.32;4.25;;;;;;;14.38;100.00;101163.97;6127209;23;20339;-70
2024/03/14 10:50:57;;;;;;;6.38;4.47;;;;;;;14.50;100.00;101168.22;6179554;23;20492;-71
2024/03/14 10:53:24;;;;;;;6.88;4.45;;;;;;;14.54;100.00;101161.94;6204616;23;20695;-71
2024/03/14 10:55:52;;;;;;;6.22;4.80;;;;;;;14.53;100.00;101156.84;6179178;23;20050;-71
2024/03/14 10:58:21;;;;;;;5.90;4.20;;;;;;;14.42;100.00;101165.00;6128362;23;20021;-70
2024/03/14 11:00:49;;;;;;;7.60;5.13;;;;;;;14.42;100.00;101153.41;6178859;23;20593;-71
2024/03/14 11:03:18;;;;;;;6.57;4.47;;;;;;;14.45;100.00;101159.06;6177402;23;20040;-71
2024/03/14 11:05:50;;;;;;;5.80;4.07;;;;;;;14.55;100.00;101158.16;6153423;23;20024;-71
2024/03/14 11:08:17;;;;;;;5.85;4.40;;;;;;;14.61;100.00;101150.84;6152156;23;20022;-71
2024/03/14 11:10:47;;;;;;;6.25;4.05;;;;;;;14.55;100.00;101155.47;6177327;23;20020;-72
2024/03/14 11:13:18;;;;;;;6.10;3.80;;;;;;;14.53;100.00;101148.78;6203303;23;20350;-72
2024/03/14 11:15:44;;;;;;;6.88;4.15;;;;;;;14.47;100.00;101145.31;6203858;23;20008;-72
2024/03/14 11:18:16;;;;;;;6.60;3.92;;;;;;;14.61;100.00;101151.63;6176935;23;20032;-72